Time;durP1;ratioP1;P1;durP2;ratioP2;P2;SDS_P1;SDS_P2;PMS_P1;PMS_P2;Temp;Humidity;BMP_temperature;BMP_pressure;BME280_temperature;BME280_humidity;BME280_pressure;Samples;Min_cycle;Max_cycle;Signal;HPM_P1;HPM_P2
2023/12/27 00:01:41;;;;;;;18.15;12.00;;;;;;;9.65;72.55;101506.81;5077410;28;20064;-82
2023/12/27 00:04:33;;;;;;;18.35;11.38;;;;;;;9.67;72.97;101503.81;5075848;28;20052;-82
2023/12/27 00:07:25;;;;;;;15.37;9.83;;;;;;;9.66;72.92;101513.06;5079175;28;20441;-82
2023/12/27 00:10:15;;;;;;;23.42;11.35;;;;;;;9.72;72.15;101501.03;5076523;28;20293;-82
2023/12/27 00:13:07;;;;;;;19.25;10.98;;;;;;;9.54;72.62;101507.25;5074741;28;20056;-82
2023/12/27 00:16:02;;;;;;;22.38;11.82;;;;;;;9.70;73.04;101511.41;5078603;28;20051;-82
2023/12/27 00:18:54;;;;;;;17.73;11.23;;;;;;;9.66;72.84;101519.31;5075759;28;20047;-83
2023/12/27 00:21:48;;;;;;;17.00;9.70;;;;;;;9.62;72.65;101520.16;5073049;28;20044;-83
2023/12/27 00:24:43;;;;;;;16.33;10.55;;;;;;;9.76;71.84;101512.94;5076476;28;20044;-82
2023/12/27 00:27:35;;;;;;;12.83;8.20;;;;;;;9.60;71.68;101506.09;5074424;28;20040;-82
2023/12/27 00:30:27;;;;;;;15.55;9.73;;;;;;;9.61;72.34;101507.69;5062949;28;20071;-82
2023/12/27 00:33:21;;;;;;;16.27;10.27;;;;;;;9.57;71.59;101510.19;5060839;28;20063;-82
2023/12/27 00:36:14;;;;;;;17.70;9.75;;;;;;;9.76;72.04;101507.50;5073547;28;20043;-82
2023/12/27 00:39:09;;;;;;;19.50;9.43;;;;;;;9.70;71.98;101523.06;5076909;28;20050;-81
2023/12/27 00:42:04;;;;;;;12.18;7.63;;;;;;;9.65;72.14;101522.31;5075407;28;20048;-82
2023/12/27 00:44:58;;;;;;;15.00;6.90;;;;;;;9.79;72.03;101523.25;5076398;28;20043;-82
2023/12/27 00:47:55;;;;;;;19.00;10.65;;;;;;;9.76;71.63;101523.81;5060979;28;20063;-82
2023/12/27 00:50:50;;;;;;;21.08;11.20;;;;;;;9.83;71.76;101513.41;5067321;28;20044;-82
2023/12/27 00:53:42;;;;;;;17.60;9.77;;;;;;;9.73;71.90;101538.78;5073345;28;20051;-82
2023/12/27 00:56:35;;;;;;;16.02;10.30;;;;;;;9.65;71.95;101542.13;5074728;28;20285;-82
2023/12/27 00:59:25;;;;;;;16.70;10.20;;;;;;;9.80;71.69;101554.75;5063513;28;20051;-82
2023/12/27 01:02:22;;;;;;;17.65;9.57;;;;;;;9.86;71.82;101565.25;5076766;28;20087;-81
2023/12/27 01:05:18;;;;;;;21.02;10.75;;;;;;;9.69;72.37;101561.38;5072629;28;20044;-82
2023/12/27 01:08:12;;;;;;;12.25;7.25;;;;;;;9.78;72.63;101570.50;5075702;28;20040;-82
2023/12/27 01:11:07;;;;;;;16.45;10.10;;;;;;;9.91;71.62;101556.22;5072393;28;20048;-82
2023/12/27 01:14:01;;;;;;;14.20;10.02;;;;;;;9.86;71.79;101567.97;5072461;28;20048;-82
2023/12/27 01:16:56;;;;;;;18.80;10.57;;;;;;;9.94;71.76;101557.56;5076845;28;20044;-82
2023/12/27 01:19:53;;;;;;;18.33;11.47;;;;;;;9.91;71.06;101563.56;5072760;28;20037;-82
2023/12/27 01:22:47;;;;;;;16.73;10.93;;;;;;;9.98;71.45;101574.91;5062047;28;20037;-82
2023/12/27 01:25:41;;;;;;;15.18;10.00;;;;;;;10.08;70.89;101583.75;5072989;28;20056;-81
2023/12/27 01:28:35;;;;;;;15.98;10.35;;;;;;;10.02;71.40;101581.38;5073476;28;20036;-82
2023/12/27 01:31:30;;;;;;;12.52;7.43;;;;;;;10.10;71.23;101564.44;5061135;28;20040;-82
2023/12/27 01:34:24;;;;;;;17.65;11.23;;;;;;;9.87;72.43;101569.59;5072916;28;20051;-82
2023/12/27 01:37:17;;;;;;;13.33;8.20;;;;;;;9.94;71.37;101566.53;5064687;28;20048;-82
2023/12/27 01:40:12;;;;;;;18.85;10.65;;;;;;;9.95;71.17;101570.88;5078515;28;20043;-82
2023/12/27 01:43:07;;;;;;;16.52;9.30;;;;;;;9.90;71.64;101583.69;5061754;28;20047;-82
2023/12/27 01:46:01;;;;;;;16.03;9.53;;;;;;;10.01;71.40;101580.53;5076665;28;20071;-82
2023/12/27 01:48:57;;;;;;;13.40;9.13;;;;;;;9.85;70.48;101582.63;5075989;28;20052;-81
2023/12/27 01:51:55;;;;;;;11.93;8.38;;;;;;;9.61;72.57;101586.44;5066223;28;20047;-82
2023/12/27 01:54:47;;;;;;;13.98;9.07;;;;;;;9.75;70.71;101568.38;5063827;28;20417;-82
2023/12/27 01:57:42;;;;;;;14.95;8.75;;;;;;;9.86;70.26;101576.09;5075730;28;20051;-82
2023/12/27 02:00:33;;;;;;;15.85;8.88;;;;;;;9.81;70.09;101578.88;5064445;28;20696;-82
2023/12/27 02:03:27;;;;;;;14.02;8.45;;;;;;;9.74;71.21;101573.00;5062908;28;20040;-82
2023/12/27 02:06:23;;;;;;;11.47;6.47;;;;;;;10.00;70.00;101589.00;5081064;28;20047;-80
2023/12/27 02:09:15;;;;;;;14.93;8.32;;;;;;;10.09;70.07;101598.13;5077598;28;20265;-82
2023/12/27 02:12:09;;;;;;;13.43;9.15;;;;;;;10.06;69.71;101596.78;5076205;28;20040;-82
2023/12/27 02:15:04;;;;;;;14.63;8.65;;;;;;;9.74;71.84;101586.59;5063128;28;20441;-81
2023/12/27 02:17:59;;;;;;;16.00;7.75;;;;;;;9.96;70.87;101586.03;5075886;28;20047;-82
2023/12/27 02:20:53;;;;;;;12.20;7.35;;;;;;;9.90;70.90;101583.69;5065399;28;20051;-82
2023/12/27 02:23:47;;;;;;;13.98;8.48;;;;;;;9.94;70.96;101585.53;5062887;28;20043;-82
2023/12/27 02:26:42;;;;;;;18.80;8.95;;;;;;;10.03;70.40;101575.66;5060352;28;20055;-82
2023/12/27 02:29:32;;;;;;;15.73;9.75;;;;;;;10.05;70.45;101575.38;5064012;28;20516;-82
2023/12/27 02:32:26;;;;;;;14.05;8.65;;;;;;;10.14;70.48;101579.88;5074989;28;20059;-82
2023/12/27 02:35:19;;;;;;;10.45;7.35;;;;;;;9.95;70.13;101581.72;5074815;28;20051;-82
2023/12/27 02:38:13;;;;;;;15.68;9.35;;;;;;;9.79;72.00;101577.56;5077246;28;20047;-82
2023/12/27 02:41:08;;;;;;;15.10;8.43;;;;;;;9.60;71.05;101579.41;5074812;28;20039;-82
2023/12/27 02:44:02;;;;;;;9.93;5.53;;;;;;;9.61;71.42;101581.00;5074665;28;20043;-82
2023/12/27 02:46:54;;;;;;;13.53;8.63;;;;;;;9.76;70.34;101588.97;5075377;28;20049;-82
2023/12/27 02:49:49;;;;;;;14.88;8.52;;;;;;;9.78;70.18;101581.38;5064675;28;20047;-82
2023/12/27 02:52:47;;;;;;;11.73;7.30;;;;;;;9.67;70.99;101585.28;5063410;28;20047;-82
2023/12/27 02:55:41;;;;;;;15.50;8.45;;;;;;;9.82;70.87;101582.41;5076004;28;20055;-82
2023/12/27 02:58:33;;;;;;;11.48;7.13;;;;;;;9.66;71.46;101581.75;5079200;28;20051;-82
2023/12/27 03:01:28;;;;;;;13.70;8.88;;;;;;;9.82;71.08;101596.00;5075457;28;20051;-82
2023/12/27 03:04:22;;;;;;;11.45;8.55;;;;;;;9.82;71.00;101593.28;5075028;28;20043;-82
2023/12/27 03:07:17;;;;;;;12.68;8.82;;;;;;;9.71;70.70;101597.19;5075082;28;20051;-81
2023/12/27 03:10:12;;;;;;;16.77;9.15;;;;;;;9.68;70.22;101586.91;5074390;28;20059;-82
2023/12/27 03:13:06;;;;;;;15.73;6.73;;;;;;;9.67;70.40;101585.28;5064520;28;20150;-82
2023/12/27 03:16:05;;;;;;;13.80;8.25;;;;;;;9.88;69.90;101586.69;5075106;28;20044;-82
2023/12/27 03:18:59;;;;;;;18.38;8.18;;;;;;;9.97;69.32;101584.94;5074890;28;20405;-83
2023/12/27 03:21:54;;;;;;;11.47;7.07;;;;;;;9.78;69.76;101589.53;5074858;28;20055;-81
2023/12/27 03:24:47;;;;;;;10.73;7.35;;;;;;;9.86;68.09;101586.16;5074759;28;20516;-81
2023/12/27 03:27:37;;;;;;;13.77;8.23;;;;;;;9.74;68.14;101581.16;5074597;28;20058;-82
2023/12/27 03:30:29;;;;;;;12.15;7.78;;;;;;;9.68;69.24;101562.47;5077319;28;20047;-81
2023/12/27 03:33:24;;;;;;;12.23;7.78;;;;;;;9.76;68.66;101567.25;5074424;28;20051;-81
2023/12/27 03:36:16;;;;;;;13.80;7.70;;;;;;;9.76;67.55;101561.81;5063159;28;20452;-82
2023/12/27 03:39:14;;;;;;;11.95;7.50;;;;;;;9.88;68.04;101575.81;5074088;28;20051;-82
2023/12/27 03:42:08;;;;;;;15.02;6.93;;;;;;;9.74;68.88;101580.34;5074312;28;20047;-82
2023/12/27 03:44:58;;;;;;;9.37;6.70;;;;;;;9.84;67.92;101577.50;5074095;28;20047;-82
2023/12/27 03:47:53;;;;;;;13.85;8.05;;;;;;;9.77;68.50;101579.75;5074550;28;20289;-81
2023/12/27 03:50:48;;;;;;;11.87;6.07;;;;;;;9.88;68.07;101573.09;5076887;28;20051;-83
2023/12/27 03:53:43;;;;;;;10.95;7.60;;;;;;;9.93;67.85;101573.06;5073804;28;20278;-82
2023/12/27 03:56:35;;;;;;;9.93;5.68;;;;;;;9.93;67.84;101573.06;5073672;28;20698;-82
2023/12/27 03:59:34;;;;;;;12.38;7.60;;;;;;;10.01;67.81;101572.41;5061835;28;20059;-83
2023/12/27 04:02:28;;;;;;;16.55;7.38;;;;;;;10.01;67.89;101566.97;5059280;28;20048;-82
2023/12/27 04:05:23;;;;;;;17.20;7.97;;;;;;;9.97;67.31;101571.38;5074801;28;20043;-83
2023/12/27 04:08:15;;;;;;;12.15;5.93;;;;;;;9.96;67.86;101587.94;5074188;28;20043;-83
2023/12/27 04:11:10;;;;;;;12.68;8.68;;;;;;;9.94;68.22;101590.97;5074708;28;20051;-82
2023/12/27 04:14:05;;;;;;;10.85;7.35;;;;;;;10.00;68.50;101587.09;5061805;28;20047;-82
2023/12/27 04:16:59;;;;;;;17.65;9.63;;;;;;;9.90;68.71;101584.50;5059758;28;20048;-83
2023/12/27 04:19:54;;;;;;;14.90;9.88;;;;;;;9.84;70.02;101596.53;5076715;28;20051;-81
2023/12/27 04:22:48;;;;;;;21.58;11.23;;;;;;;9.90;70.56;101600.81;5073776;28;20043;-81
2023/12/27 04:25:43;;;;;;;18.43;10.40;;;;;;;9.97;70.70;101587.66;5053996;28;20521;-82
2023/12/27 04:28:41;;;;;;;16.55;11.55;;;;;;;9.85;70.98;101587.28;5056878;28;20043;-83
2023/12/27 04:31:35;;;;;;;20.83;12.82;;;;;;;9.96;70.87;101598.81;5039063;28;20064;-81
2023/12/27 04:34:29;;;;;;;26.05;14.13;;;;;;;9.45;72.01;101592.00;5042951;28;20047;-83
2023/12/27 04:37:24;;;;;;;18.88;10.57;;;;;;;9.00;75.22;101600.53;5089242;28;20580;-83
2023/12/27 04:40:19;;;;;;;25.43;14.50;;;;;;;9.26;75.64;101601.97;5063707;28;20513;-82
2023/12/27 04:43:14;;;;;;;26.00;15.30;;;;;;;9.47;74.64;101601.78;5061629;28;20266;-82
2023/12/27 04:46:09;;;;;;;22.83;14.20;;;;;;;9.67;73.29;101615.97;5073876;28;20040;-82
2023/12/27 04:49:03;;;;;;;21.50;12.68;;;;;;;9.62;72.67;101604.34;5062954;28;20040;-82
2023/12/27 04:51:58;;;;;;;21.70;11.13;;;;;;;9.51;73.00;101605.53;5059993;28;20048;-82
2023/12/27 04:54:53;;;;;;;14.93;7.80;;;;;;;9.55;71.60;101614.75;5061401;28;20056;-82
2023/12/27 04:57:48;;;;;;;13.48;8.23;;;;;;;9.59;71.56;101624.75;5073908;28;20051;-83
2023/12/27 05:00:42;;;;;;;18.70;10.17;;;;;;;9.73;71.03;101622.97;5073879;28;20044;-81
2023/12/27 05:03:35;;;;;;;14.23;9.88;;;;;;;9.84;70.60;101626.41;5062786;28;20041;-81
2023/12/27 05:06:29;;;;;;;15.07;8.75;;;;;;;9.85;69.44;101636.97;5075354;28;20043;-80
2023/12/27 05:09:23;;;;;;;15.50;9.50;;;;;;;9.71;69.77;101643.34;5073296;28;20070;-81
2023/12/27 05:12:18;;;;;;;16.40;9.90;;;;;;;9.70;70.22;101642.53;5091669;28;20051;-82
2023/12/27 05:15:11;;;;;;;12.27;8.03;;;;;;;9.71;69.91;101651.50;5077782;28;20052;-82
2023/12/27 05:18:05;;;;;;;20.02;10.32;;;;;;;9.69;70.93;101651.00;5081856;28;20294;-82
2023/12/27 05:21:02;;;;;;;20.30;12.43;;;;;;;9.64;71.37;101649.16;5077973;28;20033;-82
2023/12/27 05:23:54;;;;;;;19.13;12.40;;;;;;;9.70;71.57;101655.34;5071395;28;20074;-82
2023/12/27 05:26:46;;;;;;;17.08;11.70;;;;;;;9.74;71.54;101656.38;5079932;28;20055;-80
2023/12/27 05:29:41;;;;;;;19.25;12.95;;;;;;;9.82;71.38;101664.72;5074933;28;20041;-82
2023/12/27 05:32:35;;;;;;;24.15;15.43;;;;;;;9.90;71.26;101654.31;5076228;28;20044;-82
2023/12/27 05:35:27;;;;;;;21.17;14.20;;;;;;;9.92;71.94;101666.50;5077456;28;20063;-82
2023/12/27 05:38:22;;;;;;;34.22;18.80;;;;;;;9.87;71.75;101680.16;5075842;28;20052;-82
2023/12/27 05:41:25;;;;;;;32.40;14.53;;;;;;;9.83;72.14;101670.97;5080053;28;20043;-85
2023/12/27 05:44:15;;;;;;;22.25;14.10;;;;;;;9.90;71.83;101678.78;5077626;28;20281;-86
2023/12/27 05:47:07;;;;;;;21.63;14.10;;;;;;;9.91;71.24;101678.47;5086386;28;20040;-84
2023/12/27 05:50:02;;;;;;;25.42;14.02;;;;;;;9.95;72.09;101684.16;5082013;28;20052;-83
2023/12/27 05:52:54;;;;;;;20.48;13.95;;;;;;;9.57;72.78;101683.97;5076619;28;20039;-83
2023/12/27 05:55:49;;;;;;;23.03;11.80;;;;;;;9.64;72.95;101689.88;5072506;28;20414;-84
2023/12/27 05:58:46;;;;;;;17.85;13.43;;;;;;;9.64;72.84;101689.88;5073467;28;20294;-83
2023/12/27 06:01:44;;;;;;;17.10;10.80;;;;;;;9.74;72.32;101699.84;5078776;28;20041;-83
2023/12/27 06:04:39;;;;;;;22.90;13.80;;;;;;;9.87;72.12;101691.00;5077062;28;20029;-83
2023/12/27 06:07:31;;;;;;;17.67;11.93;;;;;;;9.82;72.29;101696.50;5075887;28;20043;-83
2023/12/27 06:10:26;;;;;;;25.58;15.05;;;;;;;9.28;73.81;101696.69;5078927;28;20282;-82
2023/12/27 06:13:20;;;;;;;20.02;13.75;;;;;;;9.41;74.91;101698.75;5077896;28;20045;-83
2023/12/27 06:16:15;;;;;;;25.53;14.77;;;;;;;9.53;73.42;101699.19;5080108;28;20040;-84
2023/12/27 06:19:12;;;;;;;30.73;15.70;;;;;;;9.57;73.18;101715.72;5079201;28;20036;-83
2023/12/27 06:22:02;;;;;;;17.13;11.20;;;;;;;9.73;73.04;101706.38;5071806;28;20040;-83
2023/12/27 06:24:57;;;;;;;23.88;13.82;;;;;;;9.81;72.41;101711.97;5078122;28;20044;-83
2023/12/27 06:27:52;;;;;;;24.03;14.23;;;;;;;9.65;72.55;101707.00;5076172;28;20075;-84
2023/12/27 06:30:47;;;;;;;24.42;14.27;;;;;;;9.69;72.58;101714.28;5072809;28;20283;-82
2023/12/27 06:33:41;;;;;;;19.57;12.63;;;;;;;9.66;72.03;101709.41;5073763;28;20036;-84
2023/12/27 06:36:36;;;;;;;11.77;8.57;;;;;;;9.62;71.24;101708.34;5075959;28;20416;-83
2023/12/27 06:39:28;;;;;;;17.15;9.60;;;;;;;9.52;70.94;101713.88;5077600;28;20520;-83
2023/12/27 06:42:22;;;;;;;18.15;12.02;;;;;;;9.65;70.88;101715.13;5074954;28;20051;-82
2023/12/27 06:45:17;;;;;;;15.53;9.00;;;;;;;9.69;69.95;101724.31;5077816;28;20044;-83
2023/12/27 06:48:12;;;;;;;15.63;8.95;;;;;;;9.69;70.19;101724.31;5078539;28;20040;-83
2023/12/27 06:51:06;;;;;;;22.40;12.10;;;;;;;9.76;69.52;101732.94;5075837;28;20047;-84
2023/12/27 06:54:00;;;;;;;18.15;8.27;;;;;;;9.78;69.72;101737.00;5077770;28;20036;-84
2023/12/27 06:56:55;;;;;;;22.93;12.13;;;;;;;9.86;68.89;101741.00;5073634;28;20035;-83
2023/12/27 06:59:50;;;;;;;19.00;11.38;;;;;;;9.79;68.77;101760.38;5072753;28;20501;-83
2023/12/27 07:02:42;;;;;;;18.33;10.77;;;;;;;9.71;68.15;101765.56;5071724;28;20040;-83
2023/12/27 07:05:37;;;;;;;17.67;10.88;;;;;;;9.63;69.07;101766.19;5070486;28;20659;-82
2023/12/27 07:08:31;;;;;;;18.88;10.05;;;;;;;9.57;69.28;101772.75;5073661;28;20051;-83
2023/12/27 07:11:24;;;;;;;28.27;10.13;;;;;;;9.52;68.74;101759.22;5073451;28;20044;-83
2023/12/27 07:14:16;;;;;;;13.85;8.75;;;;;;;9.64;68.07;101770.53;5072382;28;20044;-82
2023/12/27 07:17:08;;;;;;;18.35;8.27;;;;;;;9.48;68.38;101782.59;5078186;28;20040;-83
2023/12/27 07:20:06;;;;;;;13.50;7.95;;;;;;;9.39;68.08;101782.38;5075673;28;20417;-82
2023/12/27 07:23:00;;;;;;;17.50;7.78;;;;;;;9.47;69.12;101787.19;5079775;28;20040;-83
2023/12/27 07:25:53;;;;;;;15.27;7.50;;;;;;;9.61;67.22;101782.75;5075180;28;20040;-81
2023/12/27 07:28:47;;;;;;;17.63;8.52;;;;;;;9.59;68.46;101784.16;5067349;28;20039;-83
2023/12/27 07:31:42;;;;;;;15.35;6.85;;;;;;;9.58;67.97;101791.47;5070247;28;20043;-83
2023/12/27 07:34:37;;;;;;;15.87;9.80;;;;;;;9.59;68.19;101803.97;5075474;28;20048;-84
2023/12/27 07:37:31;;;;;;;11.90;6.93;;;;;;;9.60;68.87;101815.66;5079458;28;20277;-83
2023/12/27 07:40:26;;;;;;;14.13;6.80;;;;;;;9.88;66.62;101825.75;5078882;28;20055;-80
2023/12/27 07:43:22;;;;;;;14.52;8.68;;;;;;;9.39;68.36;101826.63;5075915;28;20055;-81
2023/12/27 07:46:14;;;;;;;9.87;6.47;;;;;;;9.50;68.65;101832.00;5079054;28;20043;-81
2023/12/27 07:49:09;;;;;;;19.02;9.18;;;;;;;9.56;68.27;101833.56;5073684;28;20044;-81
2023/12/27 07:52:03;;;;;;;34.45;10.63;;;;;;;9.64;67.94;101835.72;5077156;28;20035;-81
2023/12/27 07:54:58;;;;;;;17.83;9.17;;;;;;;9.65;68.02;101832.69;5070194;28;20063;-81
2023/12/27 07:57:50;;;;;;;10.77;6.87;;;;;;;9.61;68.28;101842.50;5074346;28;20043;-82
2023/12/27 08:00:44;;;;;;;16.90;8.95;;;;;;;9.66;68.29;101849.81;5077766;28;20047;-81
2023/12/27 08:03:39;;;;;;;17.20;8.73;;;;;;;9.63;68.32;101850.38;5074622;28;20393;-81
2023/12/27 08:06:34;;;;;;;16.33;8.60;;;;;;;9.61;68.85;101856.06;5073855;28;21118;-81
2023/12/27 08:09:33;;;;;;;25.80;10.03;;;;;;;9.77;68.74;101864.94;5075377;28;20798;-81
2023/12/27 08:12:23;;;;;;;21.05;9.90;;;;;;;9.88;68.20;101861.06;5072803;28;20286;-80
2023/12/27 08:15:17;;;;;;;16.95;8.48;;;;;;;9.92;68.42;101864.03;5075769;28;20047;-79
2023/12/27 08:18:12;;;;;;;21.13;9.98;;;;;;;9.90;67.87;101872.47;5058410;28;20043;-82
2023/12/27 08:21:10;;;;;;;17.88;8.93;;;;;;;9.95;67.95;101877.88;5079171;28;20051;-82
2023/12/27 08:24:04;;;;;;;27.10;11.75;;;;;;;10.04;68.52;101884.34;5071989;28;20044;-82
2023/12/27 08:26:59;;;;;;;25.50;11.20;;;;;;;10.12;68.44;101885.63;5074669;28;20037;-82
2023/12/27 08:29:53;;;;;;;68.03;34.23;;;;;;;10.11;68.38;101892.97;5077378;28;20797;-83
2023/12/27 08:32:46;;;;;;;31.60;14.10;;;;;;;10.07;68.74;101891.91;5075567;28;20040;-81
2023/12/27 08:35:40;;;;;;;25.08;10.98;;;;;;;10.13;69.41;101892.69;5073048;28;20044;-82
2023/12/27 08:38:38;;;;;;;23.98;11.68;;;;;;;10.17;68.87;101894.59;5076034;28;20028;-82
2023/12/27 08:41:32;;;;;;;40.85;13.95;;;;;;;10.25;67.78;101891.28;5073784;28;20040;-81
2023/12/27 08:44:27;;;;;;;24.73;10.03;;;;;;;10.39;68.02;101902.31;5077941;28;20040;-82
2023/12/27 08:47:22;;;;;;;25.98;10.90;;;;;;;10.60;67.50;101902.94;5074994;28;20040;-83
2023/12/27 08:50:21;;;;;;;28.02;12.95;;;;;;;10.74;67.27;101903.88;5079077;28;20040;-81
2023/12/27 08:53:13;;;;;;;30.65;11.23;;;;;;;10.99;67.07;101906.34;5076311;28;20044;-82
2023/12/27 08:56:03;;;;;;;25.38;11.18;;;;;;;11.04;66.68;101909.00;5074208;28;20052;-82
2023/12/27 08:58:57;;;;;;;36.40;11.82;;;;;;;11.24;67.26;101918.03;5075562;28;20517;-82
2023/12/27 09:01:52;;;;;;;19.27;10.55;;;;;;;11.23;65.83;101911.78;5064645;28;20036;-82
2023/12/27 09:04:47;;;;;;;18.10;7.93;;;;;;;11.35;65.70;101919.56;5071521;28;20825;-82
2023/12/27 09:07:39;;;;;;;28.80;11.87;;;;;;;11.56;65.61;101920.94;5066711;28;20040;-82
2023/12/27 09:10:31;;;;;;;32.13;11.45;;;;;;;11.69;64.64;101925.66;5072393;28;20509;-82
2023/12/27 09:13:23;;;;;;;19.02;10.77;;;;;;;11.77;63.92;101938.66;5077747;28;20501;-82
2023/12/27 09:16:18;;;;;;;28.42;11.75;;;;;;;11.76;63.98;101930.78;5075404;28;20032;-82
2023/12/27 09:19:07;;;;;;;25.50;12.00;;;;;;;11.81;64.21;101934.25;5069039;28;20032;-82
2023/12/27 09:22:02;;;;;;;19.88;10.70;;;;;;;11.98;64.01;101941.94;5076404;28;20040;-81
2023/12/27 09:24:54;;;;;;;17.60;9.90;;;;;;;12.08;63.96;101940.97;5075146;28;20649;-82
2023/12/27 09:27:48;;;;;;;23.55;13.55;;;;;;;12.11;64.47;101941.19;5078508;28;20324;-82
2023/12/27 09:30:48;;;;;;;27.95;15.18;;;;;;;12.33;63.36;101943.31;5076155;28;20477;-81
2023/12/27 09:33:42;;;;;;;30.38;16.83;;;;;;;12.48;62.14;101940.34;5065672;28;20040;-82
2023/12/27 09:36:37;;;;;;;29.27;16.88;;;;;;;12.60;62.04;101934.38;5073784;28;20513;-81
2023/12/27 09:39:32;;;;;;;27.73;16.08;;;;;;;12.73;62.03;101939.91;5068672;28;20049;-82
2023/12/27 09:42:22;;;;;;;29.42;18.27;;;;;;;12.91;61.33;101940.94;5077577;28;20041;-82
2023/12/27 09:45:20;;;;;;;31.50;17.10;;;;;;;12.88;61.46;101941.56;5071254;28;20048;-82
2023/12/27 09:48:17;;;;;;;33.78;19.15;;;;;;;13.16;61.26;101943.22;5070371;28;20418;-80
2023/12/27 09:51:12;;;;;;;37.97;18.75;;;;;;;13.31;60.63;101949.53;5072484;28;20417;-82
2023/12/27 09:54:04;;;;;;;29.60;16.58;;;;;;;13.17;60.77;101949.50;5073967;28;20029;-82
2023/12/27 09:56:59;;;;;;;39.60;20.60;;;;;;;12.80;62.86;101948.50;5069420;28;20577;-83
2023/12/27 09:59:51;;;;;;;54.45;23.70;;;;;;;12.47;64.99;101946.91;5075961;28;20036;-83
2023/12/27 10:02:46;;;;;;;32.28;22.00;;;;;;;12.72;63.78;101945.66;5076432;28;20037;-81
2023/12/27 10:05:47;;;;;;;32.22;17.52;;;;;;;12.66;63.20;101944.13;5074785;28;20505;-81
2023/12/27 10:08:40;;;;;;;35.40;21.00;;;;;;;12.36;65.92;101948.97;5072350;28;20044;-81
2023/12/27 10:11:31;;;;;;;34.85;20.77;;;;;;;12.42;64.63;101945.06;5074869;28;20036;-81
2023/12/27 10:14:24;;;;;;;37.38;22.08;;;;;;;12.84;64.24;101938.63;5075132;28;20045;-81
2023/12/27 10:17:19;;;;;;;39.90;24.40;;;;;;;12.37;65.23;101933.41;5076713;28;20425;-81
2023/12/27 10:20:29;;;;;;;40.53;25.43;;;;;;;11.94;68.55;101933.50;5080673;28;20036;-81
2023/12/27 10:23:24;;;;;;;42.42;25.75;;;;;;;12.38;66.57;101937.78;5077085;28;20048;-81
2023/12/27 10:26:18;;;;;;;51.33;29.57;;;;;;;11.60;70.18;101932.84;5080671;28;20672;-81
2023/12/27 10:29:10;;;;;;;43.13;27.75;;;;;;;12.19;68.75;101928.81;5077951;28;20405;-81
2023/12/27 10:32:06;;;;;;;59.73;31.37;;;;;;;11.94;70.23;101933.50;5076436;28;20037;-81
2023/12/27 10:35:01;;;;;;;59.45;35.35;;;;;;;11.80;71.05;101929.91;5078439;28;20032;-81
2023/12/27 10:38:02;;;;;;;58.25;29.90;;;;;;;11.45;73.54;101933.88;5076854;28;20056;-81
2023/12/27 10:40:57;;;;;;;53.45;34.85;;;;;;;11.78;72.29;101934.84;5080541;28;20045;-80
2023/12/27 10:43:49;;;;;;;46.45;27.73;;;;;;;11.82;72.54;101930.44;5077828;28;20032;-81
2023/12/27 10:46:42;;;;;;;52.63;34.72;;;;;;;11.68;73.30;101934.13;5067210;28;20033;-80
2023/12/27 10:49:35;;;;;;;54.53;34.50;;;;;;;11.68;72.55;101929.50;5077826;28;20056;-80
2023/12/27 10:52:27;;;;;;;64.97;36.95;;;;;;;11.52;74.28;101937.06;5070990;28;20040;-81
2023/12/27 10:55:22;;;;;;;66.03;39.80;;;;;;;11.42;74.67;101925.47;5076275;28;20044;-81
2023/12/27 10:58:26;;;;;;;50.80;30.07;;;;;;;12.44;70.66;101925.69;5078065;28;20511;-81
2023/12/27 11:01:21;;;;;;;62.67;34.58;;;;;;;12.79;68.04;101919.59;5072809;28;20048;-81
2023/12/27 11:04:16;;;;;;;49.37;28.57;;;;;;;12.44;69.68;101920.22;5066220;28;20033;-83
2023/12/27 11:07:14;;;;;;;48.35;28.35;;;;;;;12.31;70.08;101910.88;5063634;28;20802;-80
2023/12/27 11:10:10;;;;;;;59.80;35.13;;;;;;;12.24;71.56;101917.81;5074274;28;20041;-81
2023/12/27 11:13:03;;;;;;;62.25;36.63;;;;;;;11.61;73.01;101915.41;5076416;28;20032;-81
2023/12/27 11:15:55;;;;;;;68.25;39.47;;;;;;;11.90;73.05;101909.88;5074580;28;20037;-81
2023/12/27 11:18:53;;;;;;;62.33;38.33;;;;;;;12.13;72.58;101910.91;5077575;28;20485;-81
2023/12/27 11:21:47;;;;;;;65.57;40.47;;;;;;;11.91;72.19;101909.56;5071718;28;20501;-81
2023/12/27 11:24:42;;;;;;;65.13;37.97;;;;;;;11.87;72.80;101915.91;5077893;28;20029;-81
2023/12/27 11:27:36;;;;;;;48.17;28.40;;;;;;;12.21;71.96;101913.75;5075598;28;20041;-80
2023/12/27 11:30:31;;;;;;;62.13;37.10;;;;;;;11.51;73.25;101897.28;5078197;28;20576;-80
2023/12/27 11:33:26;;;;;;;67.37;41.67;;;;;;;11.56;74.38;101896.41;5074048;28;20044;-81
2023/12/27 11:36:21;;;;;;;65.57;37.78;;;;;;;12.18;71.56;101886.28;5070981;28;20290;-80
2023/12/27 11:39:26;;;;;;;65.70;36.50;;;;;;;12.53;69.93;101880.22;5071856;28;20067;-81
2023/12/27 11:42:24;;;;;;;52.13;31.48;;;;;;;12.43;70.26;101877.69;5072340;28;20041;-81
2023/12/27 11:45:19;;;;;;;63.95;37.63;;;;;;;14.45;62.29;101887.06;5075632;28;20045;-80
2023/12/27 11:48:13;;;;;;;48.00;29.20;;;;;;;13.36;66.96;101886.59;5073694;28;20040;-81
2023/12/27 11:51:29;;;;;;;48.17;31.53;;;;;;;13.40;66.54;101888.41;5068525;28;20036;-81
2023/12/27 11:54:29;;;;;;;61.65;38.28;;;;;;;12.92;68.33;101881.69;5075700;28;20036;-81
2023/12/27 11:57:21;;;;;;;67.10;40.17;;;;;;;12.18;71.81;101873.47;5073604;28;20067;-81
2023/12/27 12:00:25;;;;;;;63.35;39.85;;;;;;;12.51;70.16;101879.72;5073364;28;20267;-81
2023/12/27 12:03:30;;;;;;;64.72;39.67;;;;;;;12.69;70.11;101875.31;5074236;28;20401;-83
2023/12/27 12:06:55;;;;;;;63.60;39.58;;;;;;;12.90;68.89;101873.78;5077903;28;20040;-83
2023/12/27 12:09:49;;;;;;;65.03;40.55;;;;;;;12.69;69.32;101870.66;5066403;28;20040;-83
2023/12/27 12:12:41;;;;;;;54.73;32.17;;;;;;;12.60;69.93;101868.91;5071394;28;20420;-83
2023/12/27 12:15:37;;;;;;;67.78;37.85;;;;;;;13.12;68.12;101878.59;5070261;28;20045;-83
2023/12/27 12:18:34;;;;;;;60.63;35.50;;;;;;;13.28;67.06;101874.44;5078693;28;20040;-83
2023/12/27 12:21:28;;;;;;;59.42;37.67;;;;;;;12.64;70.10;101865.31;5072895;28;20032;-84
2023/12/27 12:24:20;;;;;;;59.67;37.75;;;;;;;12.41;70.62;101871.69;5074739;28;20040;-84
2023/12/27 12:27:10;;;;;;;62.72;38.40;;;;;;;12.19;71.70;101863.38;5073992;28;20033;-84
2023/12/27 12:30:02;;;;;;;63.45;37.38;;;;;;;12.33;70.81;101856.03;5070653;28;20036;-83
2023/12/27 12:32:54;;;;;;;64.50;37.60;;;;;;;12.22;71.23;101851.84;5078274;28;20764;-85
2023/12/27 12:35:47;;;;;;;58.60;38.42;;;;;;;11.86;72.34;101846.97;5073993;28;20405;-83
2023/12/27 12:38:41;;;;;;;67.10;40.70;;;;;;;11.49;74.40;101849.66;5063438;28;20029;-81
2023/12/27 12:41:29;;;;;;;50.45;30.40;;;;;;;11.55;73.99;101843.84;5077050;28;20070;-83
2023/12/27 12:44:24;;;;;;;63.17;37.40;;;;;;;11.64;74.27;101841.25;5076302;28;20040;-83
2023/12/27 12:47:19;;;;;;;60.90;39.20;;;;;;;11.80;73.34;101845.41;5072822;28;20413;-81
2023/12/27 12:50:12;;;;;;;69.18;39.35;;;;;;;11.83;73.35;101841.31;5070840;28;20036;-82
2023/12/27 12:53:20;;;;;;;60.10;38.58;;;;;;;12.22;71.67;101840.94;5075696;28;20036;-83
2023/12/27 12:56:12;;;;;;;60.90;38.13;;;;;;;12.00;72.16;101839.66;5072886;28;20040;-83
2023/12/27 12:59:06;;;;;;;71.67;39.93;;;;;;;12.26;71.93;101841.94;5075470;28;20036;-83
2023/12/27 13:02:02;;;;;;;68.03;40.20;;;;;;;11.90;73.15;101831.63;5073386;28;20266;-83
2023/12/27 13:04:57;;;;;;;65.50;40.40;;;;;;;12.04;72.70;101828.94;5076465;28;20036;-83
2023/12/27 13:07:52;;;;;;;68.75;41.08;;;;;;;11.61;73.89;101828.25;5075059;28;20028;-86
2023/12/27 13:10:47;;;;;;;71.80;41.10;;;;;;;11.69;74.28;101818.56;5075252;28;20040;-84
2023/12/27 13:13:42;;;;;;;69.70;41.60;;;;;;;11.40;74.75;101816.00;5075256;28;20520;-84
2023/12/27 13:16:36;;;;;;;66.87;40.80;;;;;;;11.81;74.57;101816.25;5079052;28;20502;-84
2023/12/27 13:19:28;;;;;;;71.60;41.70;;;;;;;11.41;75.48;101813.00;5070070;28;20771;-83
2023/12/27 13:22:23;;;;;;;68.60;41.10;;;;;;;11.27;76.51;101814.03;5072977;28;20498;-83